sensor_id;sensor_type;location;lat;lon;timestamp;P1;durP1;ratioP1;P2;durP2;ratioP2
64712;SDS011;51140;45.340;5.980;2023-05-14T00:01:46;6.80;;;3.17;;
64712;SDS011;51140;45.340;5.980;2023-05-14T00:04:11;9.18;;;3.25;;
64712;SDS011;51140;45.340;5.980;2023-05-14T00:06:36;6.15;;;2.38;;
64712;SDS011;51140;45.340;5.980;2023-05-14T00:09:01;5.93;;;2.30;;
64712;SDS011;51140;45.340;5.980;2023-05-14T00:11:28;7.65;;;2.45;;
64712;SDS011;51140;45.340;5.980;2023-05-14T00:13:53;5.30;;;2.45;;
64712;SDS011;51140;45.340;5.980;2023-05-14T00:16:18;5.57;;;2.77;;
64712;SDS011;51140;45.340;5.980;2023-05-14T00:18:43;5.73;;;2.40;;
64712;SDS011;51140;45.340;5.980;2023-05-14T00:21:09;5.90;;;2.22;;
64712;SDS011;51140;45.340;5.980;2023-05-14T00:23:34;5.40;;;2.42;;
64712;SDS011;51140;45.340;5.980;2023-05-14T00:25:59;7.90;;;2.80;;
64712;SDS011;51140;45.340;5.980;2023-05-14T00:28:24;6.83;;;2.70;;
64712;SDS011;51140;45.340;5.980;2023-05-14T00:30:50;7.35;;;3.17;;
64712;SDS011;51140;45.340;5.980;2023-05-14T00:33:16;8.15;;;3.20;;
64712;SDS011;51140;45.340;5.980;2023-05-14T00:35:41;11.60;;;3.97;;
64712;SDS011;51140;45.340;5.980;2023-05-14T00:38:06;7.95;;;3.90;;
64712;SDS011;51140;45.340;5.980;2023-05-14T00:40:31;11.10;;;3.90;;
64712;SDS011;51140;45.340;5.980;2023-05-14T00:42:57;9.55;;;4.22;;
64712;SDS011;51140;45.340;5.980;2023-05-14T00:45:22;6.97;;;3.75;;
64712;SDS011;51140;45.340;5.980;2023-05-14T00:47:47;9.07;;;3.63;;
64712;SDS011;51140;45.340;5.980;2023-05-14T00:50:13;7.85;;;3.60;;
64712;SDS011;51140;45.340;5.980;2023-05-14T00:52:39;9.27;;;3.30;;
64712;SDS011;51140;45.340;5.980;2023-05-14T00:55:04;7.95;;;3.80;;
64712;SDS011;51140;45.340;5.980;2023-05-14T00:57:30;8.65;;;3.38;;
64712;SDS011;51140;45.340;5.980;2023-05-14T00:59:55;6.18;;;2.88;;
64712;SDS011;51140;45.340;5.980;2023-05-14T01:02:20;5.47;;;2.70;;
64712;SDS011;51140;45.340;5.980;2023-05-14T01:04:46;7.33;;;3.33;;
64712;SDS011;51140;45.340;5.980;2023-05-14T01:07:15;7.80;;;3.50;;
64712;SDS011;51140;45.340;5.980;2023-05-14T01:09:50;7.10;;;3.55;;
64712;SDS011;51140;45.340;5.980;2023-05-14T01:17:27;7.80;;;3.70;;
64712;SDS011;51140;45.340;5.980;2023-05-14T01:19:53;8.90;;;3.78;;
64712;SDS011;51140;45.340;5.980;2023-05-14T01:22:19;6.15;;;3.53;;
64712;SDS011;51140;45.340;5.980;2023-05-14T01:24:44;6.95;;;3.65;;
64712;SDS011;51140;45.340;5.980;2023-05-14T01:29:36;8.13;;;3.30;;
64712;SDS011;51140;45.340;5.980;2023-05-14T01:32:02;6.80;;;2.90;;
64712;SDS011;51140;45.340;5.980;2023-05-14T01:34:30;9.23;;;3.28;;
64712;SDS011;51140;45.340;5.980;2023-05-14T01:36:55;8.90;;;3.15;;
64712;SDS011;51140;45.340;5.980;2023-05-14T01:39:21;9.50;;;2.53;;
64712;SDS011;51140;45.340;5.980;2023-05-14T01:41:47;10.23;;;2.53;;
64712;SDS011;51140;45.340;5.980;2023-05-14T01:44:13;10.80;;;3.67;;
64712;SDS011;51140;45.340;5.980;2023-05-14T01:46:38;9.95;;;3.70;;
64712;SDS011;51140;45.340;5.980;2023-05-14T01:49:03;18.65;;;4.28;;
64712;SDS011;51140;45.340;5.980;2023-05-14T01:51:28;9.95;;;3.70;;
64712;SDS011;51140;45.340;5.980;2023-05-14T01:53:54;10.63;;;4.32;;
64712;SDS011;51140;45.340;5.980;2023-05-14T01:56:19;9.07;;;4.13;;
64712;SDS011;51140;45.340;5.980;2023-05-14T01:58:48;8.55;;;3.90;;
64712;SDS011;51140;45.340;5.980;2023-05-14T02:01:13;9.25;;;3.83;;
64712;SDS011;51140;45.340;5.980;2023-05-14T02:03:38;6.63;;;3.80;;
64712;SDS011;51140;45.340;5.980;2023-05-14T02:06:03;11.35;;;4.10;;
64712;SDS011;51140;45.340;5.980;2023-05-14T02:08:28;9.65;;;3.88;;
64712;SDS011;51140;45.340;5.980;2023-05-14T02:10:54;9.05;;;4.72;;
64712;SDS011;51140;45.340;5.980;2023-05-14T02:13:19;10.50;;;4.70;;
64712;SDS011;51140;45.340;5.980;2023-05-14T02:15:44;10.23;;;3.93;;
64712;SDS011;51140;45.340;5.980;2023-05-14T02:18:10;9.55;;;3.90;;
64712;SDS011;51140;45.340;5.980;2023-05-14T02:20:35;8.63;;;4.23;;
64712;SDS011;51140;45.340;5.980;2023-05-14T02:23:00;7.60;;;3.80;;
64712;SDS011;51140;45.340;5.980;2023-05-14T02:25:25;9.23;;;4.37;;
64712;SDS011;51140;45.340;5.980;2023-05-14T02:27:50;7.57;;;4.03;;
64712;SDS011;51140;45.340;5.980;2023-05-14T02:30:16;12.60;;;4.27;;
64712;SDS011;51140;45.340;5.980;2023-05-14T02:32:41;9.48;;;4.00;;
64712;SDS011;51140;45.340;5.980;2023-05-14T02:35:06;9.27;;;4.53;;
64712;SDS011;51140;45.340;5.980;2023-05-14T02:37:32;7.15;;;3.90;;
64712;SDS011;51140;45.340;5.980;2023-05-14T02:39:58;12.43;;;4.68;;
64712;SDS011;51140;45.340;5.980;2023-05-14T02:42:23;8.82;;;4.47;;
64712;SDS011;51140;45.340;5.980;2023-05-14T02:44:49;11.77;;;4.88;;
64712;SDS011;51140;45.340;5.980;2023-05-14T02:47:16;11.63;;;4.57;;
64712;SDS011;51140;45.340;5.980;2023-05-14T02:49:41;9.35;;;4.97;;
64712;SDS011;51140;45.340;5.980;2023-05-14T02:52:06;7.67;;;4.37;;
64712;SDS011;51140;45.340;5.980;2023-05-14T02:54:31;11.67;;;4.90;;
64712;SDS011;51140;45.340;5.980;2023-05-14T02:56:57;11.20;;;5.00;;
64712;SDS011;51140;45.340;5.980;2023-05-14T02:59:23;11.50;;;4.93;;
64712;SDS011;51140;45.340;5.980;2023-05-14T03:01:48;9.95;;;5.22;;
64712;SDS011;51140;45.340;5.980;2023-05-14T03:04:14;9.90;;;5.28;;
64712;SDS011;51140;45.340;5.980;2023-05-14T03:06:39;10.43;;;4.40;;
64712;SDS011;51140;45.340;5.980;2023-05-14T03:09:05;10.93;;;5.10;;
64712;SDS011;51140;45.340;5.980;2023-05-14T03:11:30;9.82;;;4.68;;
64712;SDS011;51140;45.340;5.980;2023-05-14T03:13:55;9.30;;;4.20;;
64712;SDS011;51140;45.340;5.980;2023-05-14T03:16:21;7.73;;;4.03;;
64712;SDS011;51140;45.340;5.980;2023-05-14T03:18:46;7.30;;;3.90;;
64712;SDS011;51140;45.340;5.980;2023-05-14T03:21:12;7.93;;;4.20;;
64712;SDS011;51140;45.340;5.980;2023-05-14T03:23:37;8.73;;;3.95;;
64712;SDS011;51140;45.340;5.980;2023-05-14T03:26:02;6.43;;;3.55;;
64712;SDS011;51140;45.340;5.980;2023-05-14T03:28:28;8.68;;;3.83;;
64712;SDS011;51140;45.340;5.980;2023-05-14T03:30:54;6.80;;;3.55;;
64712;SDS011;51140;45.340;5.980;2023-05-14T03:33:19;6.72;;;3.65;;
64712;SDS011;51140;45.340;5.980;2023-05-14T03:35:45;9.27;;;3.67;;
64712;SDS011;51140;45.340;5.980;2023-05-14T03:38:10;6.30;;;3.55;;
64712;SDS011;51140;45.340;5.980;2023-05-14T03:40:35;6.43;;;3.00;;
64712;SDS011;51140;45.340;5.980;2023-05-14T03:43:00;7.82;;;3.90;;
64712;SDS011;51140;45.340;5.980;2023-05-14T03:45:26;7.70;;;3.78;;
64712;SDS011;51140;45.340;5.980;2023-05-14T03:47:52;10.73;;;3.55;;
64712;SDS011;51140;45.340;5.980;2023-05-14T03:50:17;9.80;;;4.13;;
64712;SDS011;51140;45.340;5.980;2023-05-14T03:52:43;8.63;;;3.63;;
64712;SDS011;51140;45.340;5.980;2023-05-14T03:55:08;8.20;;;3.60;;
64712;SDS011;51140;45.340;5.980;2023-05-14T03:57:34;7.60;;;2.80;;
64712;SDS011;51140;45.340;5.980;2023-05-14T04:00:00;7.70;;;2.60;;
64712;SDS011;51140;45.340;5.980;2023-05-14T04:02:25;6.30;;;2.00;;
64712;SDS011;51140;45.340;5.980;2023-05-14T04:04:51;6.63;;;2.50;;
64712;SDS011;51140;45.340;5.980;2023-05-14T04:07:16;6.47;;;2.40;;
64712;SDS011;51140;45.340;5.980;2023-05-14T04:09:42;5.88;;;2.88;;
64712;SDS011;51140;45.340;5.980;2023-05-14T04:12:07;6.27;;;2.17;;
64712;SDS011;51140;45.340;5.980;2023-05-14T04:14:32;8.38;;;2.60;;
64712;SDS011;51140;45.340;5.980;2023-05-14T04:16:58;7.23;;;2.70;;
64712;SDS011;51140;45.340;5.980;2023-05-14T04:19:23;5.10;;;2.50;;
64712;SDS011;51140;45.340;5.980;2023-05-14T04:21:48;5.50;;;2.73;;
64712;SDS011;51140;45.340;5.980;2023-05-14T04:24:13;7.73;;;3.00;;
64712;SDS011;51140;45.340;5.980;2023-05-14T04:26:38;9.87;;;3.13;;
64712;SDS011;51140;45.340;5.980;2023-05-14T04:29:04;9.73;;;3.17;;
64712;SDS011;51140;45.340;5.980;2023-05-14T04:31:29;9.40;;;3.42;;
64712;SDS011;51140;45.340;5.980;2023-05-14T04:33:55;8.25;;;3.17;;
64712;SDS011;51140;45.340;5.980;2023-05-14T04:36:20;8.75;;;3.00;;
64712;SDS011;51140;45.340;5.980;2023-05-14T04:38:45;8.47;;;3.33;;
64712;SDS011;51140;45.340;5.980;2023-05-14T04:41:11;7.87;;;3.37;;
64712;SDS011;51140;45.340;5.980;2023-05-14T04:43:36;6.90;;;3.17;;
64712;SDS011;51140;45.340;5.980;2023-05-14T04:46:01;6.10;;;3.20;;
64712;SDS011;51140;45.340;5.980;2023-05-14T04:48:27;10.35;;;3.55;;
64712;SDS011;51140;45.340;5.980;2023-05-14T04:50:52;10.33;;;4.33;;
64712;SDS011;51140;45.340;5.980;2023-05-14T04:53:17;7.85;;;4.13;;
64712;SDS011;51140;45.340;5.980;2023-05-14T04:55:42;9.18;;;4.93;;
64712;SDS011;51140;45.340;5.980;2023-05-14T04:58:07;9.97;;;5.30;;
64712;SDS011;51140;45.340;5.980;2023-05-14T05:00:33;8.87;;;5.33;;
64712;SDS011;51140;45.340;5.980;2023-05-14T05:02:58;12.27;;;6.60;;
64712;SDS011;51140;45.340;5.980;2023-05-14T05:05:23;11.33;;;5.90;;
64712;SDS011;51140;45.340;5.980;2023-05-14T05:07:48;10.73;;;6.70;;
64712;SDS011;51140;45.340;5.980;2023-05-14T05:10:14;14.82;;;6.82;;
64712;SDS011;51140;45.340;5.980;2023-05-14T05:12:40;10.50;;;5.80;;
64712;SDS011;51140;45.340;5.980;2023-05-14T05:15:05;11.70;;;7.10;;
64712;SDS011;51140;45.340;5.980;2023-05-14T05:17:31;15.52;;;7.43;;
64712;SDS011;51140;45.340;5.980;2023-05-14T05:19:56;14.70;;;7.90;;
64712;SDS011;51140;45.340;5.980;2023-05-14T05:22:22;14.03;;;7.90;;
64712;SDS011;51140;45.340;5.980;2023-05-14T05:24:47;14.90;;;7.95;;
64712;SDS011;51140;45.340;5.980;2023-05-14T05:27:12;13.40;;;7.60;;
64712;SDS011;51140;45.340;5.980;2023-05-14T05:29:38;14.13;;;7.50;;
64712;SDS011;51140;45.340;5.980;2023-05-14T05:32:03;12.73;;;7.68;;
64712;SDS011;51140;45.340;5.980;2023-05-14T05:34:29;13.48;;;7.93;;
64712;SDS011;51140;45.340;5.980;2023-05-14T05:36:54;13.10;;;7.33;;
64712;SDS011;51140;45.340;5.980;2023-05-14T05:39:19;13.47;;;8.60;;
64712;SDS011;51140;45.340;5.980;2023-05-14T05:41:44;14.63;;;8.87;;
64712;SDS011;51140;45.340;5.980;2023-05-14T05:44:09;20.98;;;8.82;;
64712;SDS011;51140;45.340;5.980;2023-05-14T05:46:35;13.88;;;8.52;;
64712;SDS011;51140;45.340;5.980;2023-05-14T05:49:00;13.17;;;7.47;;
64712;SDS011;51140;45.340;5.980;2023-05-14T05:51:25;12.50;;;7.30;;
64712;SDS011;51140;45.340;5.980;2023-05-14T05:53:50;12.27;;;6.60;;
64712;SDS011;51140;45.340;5.980;2023-05-14T05:56:16;12.37;;;7.63;;
64712;SDS011;51140;45.340;5.980;2023-05-14T05:58:41;12.43;;;7.28;;
64712;SDS011;51140;45.340;5.980;2023-05-14T06:01:06;12.27;;;7.57;;
64712;SDS011;51140;45.340;5.980;2023-05-14T06:03:31;11.52;;;6.13;;
64712;SDS011;51140;45.340;5.980;2023-05-14T06:05:57;13.63;;;7.37;;
64712;SDS011;51140;45.340;5.980;2023-05-14T06:08:22;12.27;;;7.17;;
64712;SDS011;51140;45.340;5.980;2023-05-14T06:10:47;10.43;;;6.73;;
64712;SDS011;51140;45.340;5.980;2023-05-14T06:13:12;11.93;;;7.23;;
64712;SDS011;51140;45.340;5.980;2023-05-14T06:15:37;13.38;;;6.80;;
64712;SDS011;51140;45.340;5.980;2023-05-14T06:18:03;12.95;;;7.47;;
64712;SDS011;51140;45.340;5.980;2023-05-14T06:20:28;11.80;;;6.55;;
64712;SDS011;51140;45.340;5.980;2023-05-14T06:22:53;10.18;;;6.95;;
64712;SDS011;51140;45.340;5.980;2023-05-14T06:25:18;11.30;;;6.93;;
64712;SDS011;51140;45.340;5.980;2023-05-14T06:27:44;11.65;;;7.72;;
64712;SDS011;51140;45.340;5.980;2023-05-14T06:30:09;12.32;;;7.47;;
64712;SDS011;51140;45.340;5.980;2023-05-14T06:32:35;12.52;;;7.63;;
64712;SDS011;51140;45.340;5.980;2023-05-14T06:35:00;11.38;;;7.50;;
64712;SDS011;51140;45.340;5.980;2023-05-14T06:37:25;14.98;;;7.68;;
64712;SDS011;51140;45.340;5.980;2023-05-14T06:39:51;11.33;;;7.33;;
64712;SDS011;51140;45.340;5.980;2023-05-14T06:42:16;11.80;;;7.93;;
64712;SDS011;51140;45.340;5.980;2023-05-14T06:44:41;12.07;;;8.10;;
64712;SDS011;51140;45.340;5.980;2023-05-14T06:47:07;11.55;;;7.60;;
64712;SDS011;51140;45.340;5.980;2023-05-14T06:49:33;12.75;;;7.50;;
64712;SDS011;51140;45.340;5.980;2023-05-14T06:51:58;12.57;;;8.20;;
64712;SDS011;51140;45.340;5.980;2023-05-14T06:54:23;12.65;;;8.10;;
64712;SDS011;51140;45.340;5.980;2023-05-14T06:56:49;16.47;;;8.10;;
64712;SDS011;51140;45.340;5.980;2023-05-14T06:59:14;14.90;;;8.20;;
64712;SDS011;51140;45.340;5.980;2023-05-14T07:01:39;12.40;;;7.60;;
64712;SDS011;51140;45.340;5.980;2023-05-14T07:04:04;12.75;;;8.10;;
64712;SDS011;51140;45.340;5.980;2023-05-14T07:06:30;12.10;;;7.97;;
64712;SDS011;51140;45.340;5.980;2023-05-14T07:08:56;13.50;;;7.97;;
64712;SDS011;51140;45.340;5.980;2023-05-14T07:11:21;11.85;;;7.72;;
64712;SDS011;51140;45.340;5.980;2023-05-14T07:13:47;12.07;;;8.40;;
64712;SDS011;51140;45.340;5.980;2023-05-14T07:16:12;13.30;;;7.80;;
64712;SDS011;51140;45.340;5.980;2023-05-14T07:18:37;12.53;;;8.53;;
64712;SDS011;51140;45.340;5.980;2023-05-14T07:21:02;10.40;;;6.87;;
64712;SDS011;51140;45.340;5.980;2023-05-14T07:23:30;11.00;;;7.68;;
64712;SDS011;51140;45.340;5.980;2023-05-14T07:25:55;11.73;;;7.25;;
64712;SDS011;51140;45.340;5.980;2023-05-14T07:28:20;11.18;;;7.68;;
64712;SDS011;51140;45.340;5.980;2023-05-14T07:30:46;11.90;;;7.32;;
64712;SDS011;51140;45.340;5.980;2023-05-14T07:33:12;10.68;;;6.82;;
64712;SDS011;51140;45.340;5.980;2023-05-14T07:35:37;12.13;;;6.70;;
64712;SDS011;51140;45.340;5.980;2023-05-14T07:38:03;8.32;;;5.20;;
64712;SDS011;51140;45.340;5.980;2023-05-14T07:40:31;8.52;;;5.30;;
64712;SDS011;51140;45.340;5.980;2023-05-14T07:42:56;9.57;;;5.53;;
64712;SDS011;51140;45.340;5.980;2023-05-14T07:45:21;8.50;;;5.13;;
64712;SDS011;51140;45.340;5.980;2023-05-14T07:47:46;9.30;;;5.57;;
64712;SDS011;51140;45.340;5.980;2023-05-14T07:50:15;8.00;;;4.85;;
64712;SDS011;51140;45.340;5.980;2023-05-14T07:52:41;8.85;;;5.18;;
64712;SDS011;51140;45.340;5.980;2023-05-14T07:55:06;9.60;;;5.83;;
64712;SDS011;51140;45.340;5.980;2023-05-14T07:57:31;8.95;;;5.40;;
64712;SDS011;51140;45.340;5.980;2023-05-14T07:59:56;11.63;;;6.07;;
64712;SDS011;51140;45.340;5.980;2023-05-14T08:02:22;9.48;;;5.47;;
64712;SDS011;51140;45.340;5.980;2023-05-14T08:04:47;9.10;;;5.28;;
64712;SDS011;51140;45.340;5.980;2023-05-14T08:07:12;7.77;;;4.97;;
64712;SDS011;51140;45.340;5.980;2023-05-14T08:09:37;8.40;;;4.60;;
64712;SDS011;51140;45.340;5.980;2023-05-14T08:12:03;7.93;;;4.53;;
64712;SDS011;51140;45.340;5.980;2023-05-14T08:14:28;8.70;;;5.00;;
64712;SDS011;51140;45.340;5.980;2023-05-14T08:16:53;6.90;;;4.60;;
64712;SDS011;51140;45.340;5.980;2023-05-14T08:19:19;8.27;;;4.73;;
64712;SDS011;51140;45.340;5.980;2023-05-14T08:21:44;9.00;;;5.70;;
64712;SDS011;51140;45.340;5.980;2023-05-14T08:24:09;9.75;;;5.93;;
64712;SDS011;51140;45.340;5.980;2023-05-14T08:26:35;8.38;;;5.50;;
64712;SDS011;51140;45.340;5.980;2023-05-14T08:29:00;7.10;;;4.50;;
64712;SDS011;51140;45.340;5.980;2023-05-14T08:31:25;9.77;;;4.93;;
64712;SDS011;51140;45.340;5.980;2023-05-14T08:33:50;8.70;;;4.07;;
64712;SDS011;51140;45.340;5.980;2023-05-14T08:36:16;8.57;;;4.70;;
64712;SDS011;51140;45.340;5.980;2023-05-14T08:38:41;6.30;;;4.00;;
64712;SDS011;51140;45.340;5.980;2023-05-14T08:41:06;7.70;;;4.57;;
64712;SDS011;51140;45.340;5.980;2023-05-14T08:46:16;8.23;;;4.10;;
64712;SDS011;51140;45.340;5.980;2023-05-14T08:48:42;8.13;;;4.20;;
64712;SDS011;51140;45.340;5.980;2023-05-14T08:51:10;7.90;;;4.40;;
64712;SDS011;51140;45.340;5.980;2023-05-14T08:53:36;7.20;;;3.75;;
64712;SDS011;51140;45.340;5.980;2023-05-14T08:56:04;7.03;;;4.00;;
64712;SDS011;51140;45.340;5.980;2023-05-14T08:58:30;5.75;;;3.15;;
64712;SDS011;51140;45.340;5.980;2023-05-14T09:00:56;4.72;;;2.78;;
64712;SDS011;51140;45.340;5.980;2023-05-14T09:03:21;15.02;;;9.68;;
64712;SDS011;51140;45.340;5.980;2023-05-14T09:05:48;6.32;;;3.03;;
64712;SDS011;51140;45.340;5.980;2023-05-14T09:08:15;7.50;;;2.45;;
64712;SDS011;51140;45.340;5.980;2023-05-14T09:10:40;4.90;;;2.17;;
64712;SDS011;51140;45.340;5.980;2023-05-14T09:13:06;6.00;;;2.35;;
64712;SDS011;51140;45.340;5.980;2023-05-14T09:15:34;4.15;;;1.95;;
64712;SDS011;51140;45.340;5.980;2023-05-14T09:18:00;5.45;;;2.13;;
64712;SDS011;51140;45.340;5.980;2023-05-14T09:20:28;3.80;;;1.92;;
64712;SDS011;51140;45.340;5.980;2023-05-14T09:22:54;5.78;;;2.08;;
64712;SDS011;51140;45.340;5.980;2023-05-14T09:25:19;4.47;;;2.13;;
64712;SDS011;51140;45.340;5.980;2023-05-14T09:27:45;4.43;;;2.20;;
64712;SDS011;51140;45.340;5.980;2023-05-14T09:30:14;3.80;;;1.95;;
64712;SDS011;51140;45.340;5.980;2023-05-14T09:32:42;3.92;;;1.80;;
64712;SDS011;51140;45.340;5.980;2023-05-14T09:35:18;3.80;;;2.03;;
64712;SDS011;51140;45.340;5.980;2023-05-14T09:37:48;4.15;;;2.08;;
64712;SDS011;51140;45.340;5.980;2023-05-14T09:40:14;3.72;;;1.58;;
64712;SDS011;51140;45.340;5.980;2023-05-14T09:42:39;3.05;;;1.55;;
64712;SDS011;51140;45.340;5.980;2023-05-14T09:45:06;2.42;;;1.23;;
64712;SDS011;51140;45.340;5.980;2023-05-14T09:47:31;3.65;;;1.40;;
64712;SDS011;51140;45.340;5.980;2023-05-14T09:49:56;3.90;;;1.02;;
64712;SDS011;51140;45.340;5.980;2023-05-14T09:52:22;3.22;;;1.10;;
64712;SDS011;51140;45.340;5.980;2023-05-14T09:54:47;2.55;;;1.10;;
64712;SDS011;51140;45.340;5.980;2023-05-14T09:57:14;3.70;;;1.20;;
64712;SDS011;51140;45.340;5.980;2023-05-14T09:59:40;2.50;;;1.00;;
64712;SDS011;51140;45.340;5.980;2023-05-14T10:02:05;2.77;;;1.20;;
64712;SDS011;51140;45.340;5.980;2023-05-14T10:04:35;2.72;;;1.17;;
64712;SDS011;51140;45.340;5.980;2023-05-14T10:07:01;2.70;;;1.20;;
64712;SDS011;51140;45.340;5.980;2023-05-14T10:09:26;2.13;;;1.05;;
64712;SDS011;51140;45.340;5.980;2023-05-14T10:11:52;2.08;;;1.00;;
64712;SDS011;51140;45.340;5.980;2023-05-14T10:14:24;1.92;;;0.90;;
64712;SDS011;51140;45.340;5.980;2023-05-14T10:16:50;1.20;;;0.80;;
64712;SDS011;51140;45.340;5.980;2023-05-14T10:19:17;2.78;;;0.90;;
64712;SDS011;51140;45.340;5.980;2023-05-14T10:21:44;1.70;;;0.98;;
64712;SDS011;51140;45.340;5.980;2023-05-14T10:24:12;2.40;;;1.10;;
64712;SDS011;51140;45.340;5.980;2023-05-14T10:26:38;1.83;;;0.90;;
64712;SDS011;51140;45.340;5.980;2023-05-14T10:29:05;2.70;;;1.10;;
64712;SDS011;51140;45.340;5.980;2023-05-14T10:31:49;3.10;;;1.27;;
64712;SDS011;51140;45.340;5.980;2023-05-14T10:37:06;2.72;;;1.10;;
64712;SDS011;51140;45.340;5.980;2023-05-14T10:39:51;4.75;;;1.40;;
64712;SDS011;51140;45.340;5.980;2023-05-14T10:47:16;2.50;;;1.20;;
64712;SDS011;51140;45.340;5.980;2023-05-14T10:49:42;4.20;;;1.33;;
64712;SDS011;51140;45.340;5.980;2023-05-14T10:52:08;3.63;;;1.45;;
64712;SDS011;51140;45.340;5.980;2023-05-14T10:54:36;4.90;;;1.70;;
64712;SDS011;51140;45.340;5.980;2023-05-14T10:57:02;4.45;;;1.50;;
64712;SDS011;51140;45.340;5.980;2023-05-14T10:59:27;3.20;;;1.48;;
64712;SDS011;51140;45.340;5.980;2023-05-14T11:01:52;3.00;;;1.40;;
64712;SDS011;51140;45.340;5.980;2023-05-14T11:04:18;3.67;;;1.40;;
64712;SDS011;51140;45.340;5.980;2023-05-14T11:06:44;3.05;;;1.40;;
64712;SDS011;51140;45.340;5.980;2023-05-14T11:09:11;4.68;;;1.90;;
64712;SDS011;51140;45.340;5.980;2023-05-14T11:11:36;3.70;;;1.95;;
64712;SDS011;51140;45.340;5.980;2023-05-14T11:14:02;3.40;;;1.50;;
64712;SDS011;51140;45.340;5.980;2023-05-14T11:16:27;3.78;;;1.95;;
64712;SDS011;51140;45.340;5.980;2023-05-14T11:19:01;6.22;;;2.00;;
64712;SDS011;51140;45.340;5.980;2023-05-14T11:21:29;3.85;;;1.92;;
64712;SDS011;51140;45.340;5.980;2023-05-14T11:23:56;5.25;;;2.20;;
64712;SDS011;51140;45.340;5.980;2023-05-14T11:26:22;6.00;;;2.92;;
64712;SDS011;51140;45.340;5.980;2023-05-14T11:28:47;5.15;;;2.60;;
64712;SDS011;51140;45.340;5.980;2023-05-14T11:31:13;6.10;;;3.17;;
64712;SDS011;51140;45.340;5.980;2023-05-14T11:33:38;5.00;;;2.70;;
64712;SDS011;51140;45.340;5.980;2023-05-14T11:36:04;5.03;;;2.70;;
64712;SDS011;51140;45.340;5.980;2023-05-14T11:38:29;4.55;;;2.30;;
64712;SDS011;51140;45.340;5.980;2023-05-14T11:40:55;4.47;;;2.23;;
64712;SDS011;51140;45.340;5.980;2023-05-14T11:43:21;5.03;;;2.33;;
64712;SDS011;51140;45.340;5.980;2023-05-14T11:45:52;3.70;;;1.90;;
64712;SDS011;51140;45.340;5.980;2023-05-14T11:48:21;3.13;;;1.48;;
64712;SDS011;51140;45.340;5.980;2023-05-14T11:50:47;3.15;;;1.63;;
64712;SDS011;51140;45.340;5.980;2023-05-14T11:53:16;3.92;;;1.70;;
64712;SDS011;51140;45.340;5.980;2023-05-14T11:55:42;3.22;;;1.65;;
64712;SDS011;51140;45.340;5.980;2023-05-14T11:58:07;2.93;;;1.57;;
64712;SDS011;51140;45.340;5.980;2023-05-14T12:00:32;3.90;;;1.97;;
64712;SDS011;51140;45.340;5.980;2023-05-14T12:02:58;4.95;;;2.67;;
64712;SDS011;51140;45.340;5.980;2023-05-14T12:05:23;4.90;;;2.55;;
64712;SDS011;51140;45.340;5.980;2023-05-14T12:07:49;3.40;;;1.70;;
64712;SDS011;51140;45.340;5.980;2023-05-14T12:10:14;3.73;;;1.97;;
64712;SDS011;51140;45.340;5.980;2023-05-14T12:12:39;6.38;;;2.42;;
64712;SDS011;51140;45.340;5.980;2023-05-14T12:15:11;4.70;;;2.17;;
64712;SDS011;51140;45.340;5.980;2023-05-14T12:17:37;6.35;;;2.35;;
64712;SDS011;51140;45.340;5.980;2023-05-14T12:20:03;4.80;;;2.42;;
64712;SDS011;51140;45.340;5.980;2023-05-14T12:22:29;4.65;;;2.22;;
64712;SDS011;51140;45.340;5.980;2023-05-14T12:24:55;5.25;;;2.13;;
64712;SDS011;51140;45.340;5.980;2023-05-14T12:27:27;4.13;;;2.38;;
64712;SDS011;51140;45.340;5.980;2023-05-14T12:29:59;4.72;;;2.42;;
64712;SDS011;51140;45.340;5.980;2023-05-14T12:32:26;5.65;;;2.88;;
64712;SDS011;51140;45.340;5.980;2023-05-14T12:34:51;6.50;;;3.05;;
64712;SDS011;51140;45.340;5.980;2023-05-14T12:37:16;4.80;;;2.53;;
64712;SDS011;51140;45.340;5.980;2023-05-14T12:39:42;5.20;;;2.97;;
64712;SDS011;51140;45.340;5.980;2023-05-14T12:42:07;4.95;;;2.63;;
64712;SDS011;51140;45.340;5.980;2023-05-14T12:44:33;6.57;;;2.80;;
64712;SDS011;51140;45.340;5.980;2023-05-14T12:46:58;4.90;;;2.83;;
64712;SDS011;51140;45.340;5.980;2023-05-14T12:49:23;5.63;;;2.70;;
64712;SDS011;51140;45.340;5.980;2023-05-14T12:51:49;5.00;;;2.45;;
64712;SDS011;51140;45.340;5.980;2023-05-14T12:54:14;5.68;;;2.40;;
64712;SDS011;51140;45.340;5.980;2023-05-14T12:56:40;3.85;;;1.80;;
64712;SDS011;51140;45.340;5.980;2023-05-14T12:59:05;4.20;;;2.08;;
64712;SDS011;51140;45.340;5.980;2023-05-14T13:01:30;3.80;;;1.83;;
64712;SDS011;51140;45.340;5.980;2023-05-14T13:03:56;2.88;;;1.45;;
64712;SDS011;51140;45.340;5.980;2023-05-14T13:06:22;3.58;;;1.90;;
64712;SDS011;51140;45.340;5.980;2023-05-14T13:08:47;3.92;;;1.77;;
64712;SDS011;51140;45.340;5.980;2023-05-14T13:11:12;3.90;;;1.80;;
64712;SDS011;51140;45.340;5.980;2023-05-14T13:13:38;3.58;;;1.85;;
64712;SDS011;51140;45.340;5.980;2023-05-14T13:16:03;5.70;;;1.70;;
64712;SDS011;51140;45.340;5.980;2023-05-14T13:18:28;3.65;;;1.80;;
64712;SDS011;51140;45.340;5.980;2023-05-14T13:20:54;5.18;;;2.10;;
64712;SDS011;51140;45.340;5.980;2023-05-14T13:23:19;3.03;;;1.73;;
64712;SDS011;51140;45.340;5.980;2023-05-14T13:25:44;3.58;;;1.58;;
64712;SDS011;51140;45.340;5.980;2023-05-14T13:28:09;5.57;;;1.93;;
64712;SDS011;51140;45.340;5.980;2023-05-14T13:30:34;4.13;;;1.93;;
64712;SDS011;51140;45.340;5.980;2023-05-14T13:33:00;3.53;;;1.80;;
64712;SDS011;51140;45.340;5.980;2023-05-14T13:35:25;4.13;;;2.07;;
64712;SDS011;51140;45.340;5.980;2023-05-14T13:37:50;4.57;;;2.17;;
64712;SDS011;51140;45.340;5.980;2023-05-14T13:40:16;5.10;;;2.03;;
64712;SDS011;51140;45.340;5.980;2023-05-14T13:42:41;4.57;;;1.80;;
64712;SDS011;51140;45.340;5.980;2023-05-14T13:45:06;3.63;;;1.83;;
64712;SDS011;51140;45.340;5.980;2023-05-14T13:47:32;4.15;;;2.03;;
64712;SDS011;51140;45.340;5.980;2023-05-14T13:49:57;4.13;;;1.83;;
64712;SDS011;51140;45.340;5.980;2023-05-14T13:52:23;3.58;;;1.77;;
64712;SDS011;51140;45.340;5.980;2023-05-14T13:54:48;3.37;;;1.53;;
64712;SDS011;51140;45.340;5.980;2023-05-14T13:57:13;3.63;;;1.70;;
64712;SDS011;51140;45.340;5.980;2023-05-14T13:59:39;6.35;;;2.13;;
64712;SDS011;51140;45.340;5.980;2023-05-14T14:02:05;3.92;;;1.90;;
64712;SDS011;51140;45.340;5.980;2023-05-14T14:04:33;5.07;;;2.53;;
64712;SDS011;51140;45.340;5.980;2023-05-14T14:07:01;4.90;;;2.50;;
64712;SDS011;51140;45.340;5.980;2023-05-14T14:09:26;4.57;;;2.35;;
64712;SDS011;51140;45.340;5.980;2023-05-14T14:11:52;4.20;;;2.20;;
64712;SDS011;51140;45.340;5.980;2023-05-14T14:14:17;5.50;;;2.90;;
64712;SDS011;51140;45.340;5.980;2023-05-14T14:16:42;5.55;;;2.55;;
64712;SDS011;51140;45.340;5.980;2023-05-14T14:19:08;4.85;;;2.58;;
64712;SDS011;51140;45.340;5.980;2023-05-14T14:21:33;6.83;;;2.30;;
64712;SDS011;51140;45.340;5.980;2023-05-14T14:23:59;3.45;;;1.63;;
64712;SDS011;51140;45.340;5.980;2023-05-14T14:26:25;1.98;;;1.05;;
64712;SDS011;51140;45.340;5.980;2023-05-14T14:28:51;3.67;;;1.25;;
64712;SDS011;51140;45.340;5.980;2023-05-14T14:31:17;1.65;;;0.98;;
64712;SDS011;51140;45.340;5.980;2023-05-14T14:33:42;4.20;;;1.13;;
64712;SDS011;51140;45.340;5.980;2023-05-14T14:36:07;3.60;;;1.10;;
64712;SDS011;51140;45.340;5.980;2023-05-14T14:38:33;1.60;;;0.90;;
64712;SDS011;51140;45.340;5.980;2023-05-14T14:40:58;3.17;;;1.25;;
64712;SDS011;51140;45.340;5.980;2023-05-14T14:43:23;5.50;;;1.02;;
64712;SDS011;51140;45.340;5.980;2023-05-14T14:45:49;2.70;;;1.30;;
64712;SDS011;51140;45.340;5.980;2023-05-14T14:48:21;3.63;;;1.60;;
64712;SDS011;51140;45.340;5.980;2023-05-14T14:50:47;2.85;;;1.17;;
64712;SDS011;51140;45.340;5.980;2023-05-14T14:53:12;6.73;;;1.70;;
64712;SDS011;51140;45.340;5.980;2023-05-14T14:55:37;4.40;;;1.50;;